Time;durP1;ratioP1;P1;durP2;ratioP2;P2;SDS_P1;SDS_P2;PMS_P1;PMS_P2;Temp;Humidity;BMP_temperature;BMP_pressure;BME280_temperature;BME280_humidity;BME280_pressure;Samples;Min_cycle;Max_cycle;Signal;HPM_P1;HPM_P2
2022/07/31 00:00:39;;;;;;;0.60;0.60;;;;;;;19.88;100.00;97153.34;5040548;28;20029;-78
2022/07/31 00:03:15;;;;;;;1.55;1.17;;;;;;;19.88;100.00;97161.50;5022476;28;20057;-78
2022/07/31 00:05:41;;;;;;;0.50;0.50;;;;;;;19.68;100.00;97132.03;5048112;28;20032;-78
2022/07/31 00:08:12;;;;;;;1.25;0.77;;;;;;;19.74;100.00;97125.97;5028513;28;20096;-77
2022/07/31 00:10:40;;;;;;;0.45;0.40;;;;;;;19.73;100.00;97135.97;5051329;28;20037;-78
2022/07/31 00:13:10;;;;;;;0.52;0.50;;;;;;;19.78;100.00;97139.03;5040291;27;20037;-77
2022/07/31 00:16:06;;;;;;;0.88;0.70;;;;;;;20.03;100.00;97187.00;5037250;28;20064;-78
2022/07/31 00:18:41;;;;;;;3.28;1.67;;;;;;;19.89;100.00;97165.06;5040193;28;20033;-78
2022/07/31 00:21:13;;;;;;;0.22;0.22;;;;;;;19.70;100.00;97132.72;5049293;28;20469;-78
2022/07/31 00:23:47;;;;;;;0.65;0.57;;;;;;;19.72;100.00;97153.25;5013938;28;20072;-78
2022/07/31 00:26:20;;;;;;;0.60;0.28;;;;;;;19.67;100.00;97165.59;5036381;28;20037;-78
2022/07/31 00:28:57;;;;;;;0.10;0.10;;;;;;;19.37;100.00;97127.09;5023646;28;20044;-78
2022/07/31 00:31:23;;;;;;;1.30;0.82;;;;;;;19.77;100.00;97194.34;5020557;28;20060;-76
2022/07/31 00:33:48;;;;;;;0.95;0.30;;;;;;;19.76;100.00;97195.34;5020148;28;20137;-77
2022/07/31 00:36:49;;;;;;;0.22;0.22;;;;;;;19.22;100.00;97127.81;5011920;28;20026;-78
2022/07/31 00:39:20;;;;;;;0.85;0.38;;;;;;;19.42;100.00;97170.03;4997254;28;20415;-77
2022/07/31 00:41:48;;;;;;;0.10;0.10;;;;;;;19.47;100.00;97195.66;5004178;28;20033;-77
2022/07/31 00:44:13;;;;;;;0.65;0.52;;;;;;;19.43;100.00;97191.59;5047933;28;20033;-77
2022/07/31 00:46:40;;;;;;;0.43;0.43;;;;;;;19.43;100.00;97223.28;5023008;28;20062;-77
2022/07/31 00:49:08;;;;;;;0.55;0.30;;;;;;;19.52;100.00;97225.06;5024703;28;20069;-78
2022/07/31 00:51:35;;;;;;;0.20;0.20;;;;;;;19.59;100.00;97236.13;5003504;28;20025;-77
2022/07/31 00:54:00;;;;;;;0.77;0.40;;;;;;;19.59;100.00;97234.28;5004738;28;20045;-77
2022/07/31 00:56:26;;;;;;;0.52;0.52;;;;;;;19.55;100.00;97229.31;5017132;28;20025;-78
2022/07/31 00:58:54;;;;;;;0.28;0.28;;;;;;;19.70;100.00;97246.72;5031853;28;20124;-77
2022/07/31 01:01:20;;;;;;;1.60;0.98;;;;;;;19.65;100.00;97228.22;5039312;28;20056;-77
2022/07/31 01:03:46;;;;;;;0.80;0.57;;;;;;;19.78;100.00;97242.19;5030930;28;20189;-77
2022/07/31 01:06:12;;;;;;;2.78;0.55;;;;;;;19.67;100.00;97237.03;5033110;28;20116;-77
2022/07/31 01:08:38;;;;;;;0.20;0.20;;;;;;;19.75;100.00;97247.94;5024995;28;20032;-78
2022/07/31 01:11:13;;;;;;;0.80;0.65;;;;;;;19.81;100.00;97258.16;5037611;28;20028;-77
2022/07/31 01:13:53;;;;;;;0.60;0.47;;;;;;;19.71;100.00;97257.41;5035224;28;20572;-77
2022/07/31 01:16:19;;;;;;;0.40;0.40;;;;;;;19.73;100.00;97254.53;5016491;28;20034;-77
2022/07/31 01:18:45;;;;;;;0.25;0.25;;;;;;;19.54;100.00;97228.44;5031516;28;20036;-77
2022/07/31 01:21:16;;;;;;;0.45;0.45;;;;;;;19.39;100.00;97227.28;5022498;28;20029;-77
2022/07/31 01:24:11;;;;;;;14.45;1.58;;;;;;;19.53;100.00;97259.31;5030437;28;20021;-77
2022/07/31 01:26:45;;;;;;;1.45;0.65;;;;;;;19.41;100.00;97234.28;5027077;28;20045;-77
2022/07/31 01:29:40;;;;;;;0.35;0.35;;;;;;;19.49;100.00;97241.66;5023176;28;20020;-77
2022/07/31 01:32:14;;;;;;;0.30;0.30;;;;;;;19.36;100.00;97235.72;5031565;28;20021;-77
2022/07/31 01:34:52;;;;;;;1.90;1.00;;;;;;;19.31;100.00;97240.78;5019017;28;20037;-77
2022/07/31 01:37:25;;;;;;;0.28;0.28;;;;;;;19.07;100.00;97213.47;5019541;28;20030;-77
2022/07/31 01:40:01;;;;;;;0.65;0.65;;;;;;;19.15;100.00;97224.38;5011509;28;20370;-77
2022/07/31 01:42:27;;;;;;;0.75;0.47;;;;;;;19.33;100.00;97250.47;5043878;28;20020;-78
2022/07/31 01:44:56;;;;;;;0.30;0.30;;;;;;;19.25;100.00;97234.13;5014901;28;20044;-76
2022/07/31 01:47:22;;;;;;;0.40;0.40;;;;;;;19.34;100.00;97232.34;5046327;28;20077;-76
2022/07/31 01:49:49;;;;;;;0.47;0.47;;;;;;;19.20;100.00;97205.75;5011334;28;20116;-76
2022/07/31 01:52:15;;;;;;;1.88;0.43;;;;;;;19.24;100.00;97226.13;5014028;28;20025;-78
2022/07/31 01:54:41;;;;;;;1.65;0.65;;;;;;;19.16;100.00;97213.38;5047570;28;20032;-75
2022/07/31 01:57:08;;;;;;;0.77;0.55;;;;;;;19.01;100.00;97214.06;5023927;28;20043;-76
2022/07/31 01:59:35;;;;;;;0.13;0.13;;;;;;;18.98;100.00;97214.38;5046813;28;20025;-77
2022/07/31 02:02:02;;;;;;;0.38;0.30;;;;;;;19.07;100.00;97232.44;5044132;28;20389;-76
2022/07/31 02:04:28;;;;;;;0.20;0.20;;;;;;;18.99;100.00;97235.06;5011382;28;20138;-77
2022/07/31 02:06:55;;;;;;;0.00;0.00;;;;;;;19.02;100.00;97238.31;5029905;28;20216;-76
2022/07/31 02:09:21;;;;;;;0.20;0.20;;;;;;;18.95;100.00;97242.63;5030968;28;20123;-76
2022/07/31 02:11:47;;;;;;;2.08;0.63;;;;;;;19.06;100.00;97255.13;5021797;28;20326;-76
2022/07/31 02:14:15;;;;;;;2.40;0.82;;;;;;;18.89;100.00;97238.69;5047530;28;20108;-76
2022/07/31 02:16:41;;;;;;;0.20;0.20;;;;;;;18.93;100.00;97261.78;5038896;28;20029;-77
2022/07/31 02:19:07;;;;;;;0.45;0.40;;;;;;;18.79;100.00;97246.06;5018543;28;20543;-77
2022/07/31 02:21:33;;;;;;;0.70;0.20;;;;;;;18.90;100.00;97258.53;5011316;28;20033;-77
2022/07/31 02:23:59;;;;;;;20.08;1.25;;;;;;;18.91;100.00;97257.53;5038445;28;21756;-77
2022/07/31 02:26:26;;;;;;;0.20;0.20;;;;;;;18.69;100.00;97234.41;5030578;28;20031;-77
2022/07/31 02:28:52;;;;;;;0.10;0.10;;;;;;;18.69;100.00;97237.13;5037265;28;20112;-77
2022/07/31 02:31:19;;;;;;;0.95;0.68;;;;;;;18.70;100.00;97255.06;5010878;28;20034;-77
2022/07/31 02:33:46;;;;;;;0.38;0.30;;;;;;;18.59;100.00;97236.34;5043302;28;20480;-77
2022/07/31 02:36:12;;;;;;;0.38;0.22;;;;;;;18.64;100.00;97249.44;5010806;28;20047;-77
2022/07/31 02:38:39;;;;;;;3.50;1.75;;;;;;;18.35;100.00;97215.22;5026674;28;20033;-75
2022/07/31 02:41:05;;;;;;;0.35;0.35;;;;;;;18.47;100.00;97231.25;5030145;28;20033;-75
2022/07/31 02:43:33;;;;;;;0.20;0.20;;;;;;;18.41;100.00;97238.13;5030358;28;20048;-77
2022/07/31 02:45:59;;;;;;;0.43;0.43;;;;;;;18.50;100.00;97242.66;5011861;28;20480;-77
2022/07/31 02:48:25;;;;;;;2.15;0.47;;;;;;;18.41;100.00;97238.97;5024383;28;20053;-77
2022/07/31 02:50:51;;;;;;;0.30;0.30;;;;;;;18.41;100.00;97243.53;5012871;28;20036;-76
2022/07/31 02:53:17;;;;;;;3.00;0.93;;;;;;;18.41;100.00;97243.53;5010434;28;20426;-77
2022/07/31 02:55:44;;;;;;;1.13;0.90;;;;;;;18.41;100.00;97244.41;5035184;28;20029;-76
2022/07/31 02:58:10;;;;;;;0.55;0.52;;;;;;;18.36;100.00;97245.84;5018427;28;20061;-77
2022/07/31 03:00:35;;;;;;;0.63;0.60;;;;;;;18.38;100.00;97246.56;5010339;28;20061;-77
2022/07/31 03:03:01;;;;;;;0.25;0.25;;;;;;;18.28;100.00;97226.78;5026262;28;20072;-78
2022/07/31 03:05:27;;;;;;;0.73;0.40;;;;;;;18.46;100.00;97246.63;5018539;28;20082;-77
2022/07/31 03:07:52;;;;;;;0.35;0.35;;;;;;;18.49;100.00;97257.19;5026700;28;20037;-78
2022/07/31 03:10:18;;;;;;;0.85;0.43;;;;;;;18.42;100.00;97250.66;5010196;28;20386;-77
2022/07/31 03:12:46;;;;;;;0.30;0.22;;;;;;;18.46;100.00;97245.81;5026770;28;20041;-78
2022/07/31 03:15:21;;;;;;;1.00;0.80;;;;;;;18.61;100.00;97266.81;5034750;28;20029;-75
2022/07/31 03:17:47;;;;;;;1.48;1.00;;;;;;;18.47;100.00;97250.19;5026285;28;20052;-78
2022/07/31 03:20:13;;;;;;;0.60;0.60;;;;;;;18.28;100.00;97232.19;5029719;28;20472;-78
2022/07/31 03:22:39;;;;;;;0.38;0.38;;;;;;;18.23;100.00;97248.91;5015145;28;20072;-76
2022/07/31 03:25:06;;;;;;;1.75;0.98;;;;;;;18.22;100.00;97249.03;5018028;28;20521;-78
2022/07/31 03:27:31;;;;;;;1.40;0.70;;;;;;;18.16;100.00;97244.22;5025906;28;20026;-78
2022/07/31 03:29:57;;;;;;;0.10;0.10;;;;;;;18.06;100.00;97236.16;5009778;28;20029;-76
2022/07/31 03:32:22;;;;;;;0.30;0.30;;;;;;;18.11;100.00;97238.41;5018256;28;20089;-77
2022/07/31 03:34:48;;;;;;;0.40;0.40;;;;;;;18.22;100.00;97259.88;5025362;28;20029;-76
2022/07/31 03:37:14;;;;;;;0.50;0.43;;;;;;;18.10;100.00;97240.28;5021293;28;20040;-76
2022/07/31 03:39:39;;;;;;;1.63;0.70;;;;;;;18.30;100.00;97268.94;5029762;28;20116;-76
2022/07/31 03:42:09;;;;;;;0.20;0.20;;;;;;;18.37;100.00;97263.78;5021202;28;20041;-76
2022/07/31 03:44:35;;;;;;;0.15;0.15;;;;;;;18.39;100.00;97259.09;5040856;28;20059;-76
2022/07/31 03:47:00;;;;;;;2.38;1.17;;;;;;;18.36;100.00;97268.34;5017856;28;20045;-77
2022/07/31 03:49:26;;;;;;;0.47;0.47;;;;;;;18.47;100.00;97266.47;5034534;28;20040;-76
2022/07/31 03:51:52;;;;;;;0.38;0.38;;;;;;;18.56;100.00;97274.56;5025271;28;20479;-76
2022/07/31 03:54:18;;;;;;;0.30;0.20;;;;;;;18.56;100.00;97273.72;5020983;28;20033;-76
2022/07/31 03:56:46;;;;;;;1.48;0.90;;;;;;;18.59;100.00;97271.56;5029337;28;20407;-76
2022/07/31 03:59:14;;;;;;;0.38;0.38;;;;;;;18.51;100.00;97246.22;5012722;28;20094;-76
2022/07/31 04:01:39;;;;;;;0.52;0.38;;;;;;;18.60;100.00;97253.44;5023901;28;20054;-76
2022/07/31 04:04:05;;;;;;;0.75;0.38;;;;;;;18.74;100.00;97261.91;5010007;28;20350;-76
2022/07/31 04:06:30;;;;;;;8.73;1.88;;;;;;;18.74;100.00;97263.75;5017171;28;20040;-76
2022/07/31 04:08:56;;;;;;;0.20;0.20;;;;;;;18.82;100.00;97263.88;5033523;28;20086;-76
2022/07/31 04:11:21;;;;;;;2.20;0.88;;;;;;;18.83;100.00;97263.69;5020839;28;20453;-76
2022/07/31 04:13:47;;;;;;;2.13;0.70;;;;;;;18.70;100.00;97244.22;5014928;28;20041;-76
2022/07/31 04:16:12;;;;;;;2.38;1.08;;;;;;;18.86;100.00;97257.97;5017384;28;20132;-76
2022/07/31 04:18:38;;;;;;;0.43;0.30;;;;;;;18.85;100.00;97266.28;5009414;28;20037;-76
2022/07/31 04:21:04;;;;;;;0.40;0.40;;;;;;;18.82;100.00;97248.47;5026082;28;20033;-76
2022/07/31 04:23:29;;;;;;;0.90;0.73;;;;;;;19.00;100.00;97261.16;5020628;28;20504;-78
2022/07/31 04:25:55;;;;;;;0.28;0.28;;;;;;;19.16;100.00;97286.59;5029009;28;20116;-77
2022/07/31 04:28:20;;;;;;;1.48;0.95;;;;;;;18.84;100.00;97230.19;5043561;28;20040;-76
2022/07/31 04:30:46;;;;;;;0.63;0.47;;;;;;;19.20;100.00;97278.97;5009270;28;20032;-76
2022/07/31 04:33:11;;;;;;;1.95;0.28;;;;;;;19.36;100.00;97244.72;5033746;28;20613;-77
2022/07/31 04:35:37;;;;;;;31.45;2.40;;;;;;;19.54;100.00;97254.72;5021824;28;20040;-78
2022/07/31 04:38:03;;;;;;;0.30;0.30;;;;;;;19.82;100.00;97269.88;5029870;28;20037;-77
2022/07/31 04:40:28;;;;;;;4.35;1.02;;;;;;;19.88;100.00;97264.66;5030890;28;20039;-77
2022/07/31 04:42:54;;;;;;;2.35;0.98;;;;;;;19.86;100.00;97261.25;5026048;28;20025;-77
2022/07/31 04:45:19;;;;;;;0.85;0.57;;;;;;;19.86;100.00;97247.69;5021715;28;20025;-77
2022/07/31 04:47:45;;;;;;;0.70;0.70;;;;;;;19.98;100.00;97253.69;5040521;28;20162;-77
2022/07/31 04:50:11;;;;;;;1.00;0.65;;;;;;;20.09;100.00;97277.03;5048652;28;20031;-77
2022/07/31 04:52:36;;;;;;;1.65;0.70;;;;;;;20.16;100.00;97257.19;5032550;28;20104;-75
2022/07/31 04:55:02;;;;;;;0.20;0.20;;;;;;;20.32;100.00;97256.44;5033402;28;20037;-77
2022/07/31 04:57:28;;;;;;;3.22;0.68;;;;;;;20.49;100.00;97258.22;5028494;28;20071;-77
2022/07/31 04:59:53;;;;;;;0.22;0.22;;;;;;;20.56;100.00;97234.81;5017734;28;20032;-77
2022/07/31 05:02:19;;;;;;;0.75;0.75;;;;;;;20.71;100.00;97241.31;5023643;28;20388;-78
2022/07/31 05:04:44;;;;;;;1.95;0.63;;;;;;;20.84;100.00;97266.19;5027451;28;20029;-78
2022/07/31 05:07:10;;;;;;;0.90;0.90;;;;;;;20.71;100.00;97257.63;5028494;28;20504;-79
2022/07/31 05:09:36;;;;;;;1.30;0.47;;;;;;;20.76;100.00;97266.16;5032690;28;20045;-77
2022/07/31 05:12:01;;;;;;;1.30;0.65;;;;;;;20.78;100.00;97261.41;5030373;28;20036;-77
2022/07/31 05:14:27;;;;;;;0.47;0.47;;;;;;;20.96;100.00;97277.59;5038396;28;20040;-77
2022/07/31 05:16:53;;;;;;;1.70;0.70;;;;;;;21.02;100.00;97271.47;5024849;28;20051;-76
2022/07/31 05:19:18;;;;;;;1.08;0.80;;;;;;;21.20;100.00;97257.75;5025937;28;20029;-77
2022/07/31 05:21:45;;;;;;;1.02;0.52;;;;;;;21.54;100.00;97288.41;5029463;28;20476;-78
2022/07/31 05:24:11;;;;;;;0.40;0.40;;;;;;;21.71;100.00;97260.19;5025921;28;20024;-77
2022/07/31 05:26:37;;;;;;;0.82;0.82;;;;;;;21.90;100.00;97262.56;5046672;28;20029;-78
2022/07/31 05:29:04;;;;;;;0.73;0.70;;;;;;;22.09;100.00;97269.50;5048004;27;20028;-77
2022/07/31 05:31:29;;;;;;;0.45;0.35;;;;;;;24.10;100.00;97289.38;5033299;28;20025;-80
2022/07/31 05:33:57;;;;;;;1.85;1.45;;;;;;;25.02;92.61;97290.78;5019773;28;20033;-80
2022/07/31 05:36:25;;;;;;;2.13;1.48;;;;;;;25.05;91.34;97279.44;5027487;28;20032;-81
2022/07/31 05:38:50;;;;;;;0.68;0.63;;;;;;;24.60;93.21;97279.66;5041091;28;20084;-90
2022/07/31 05:41:16;;;;;;;1.33;1.23;;;;;;;24.52;95.72;97274.25;5033540;28;20105;-75
2022/07/31 05:43:42;;;;;;;7.88;2.20;;;;;;;24.59;95.90;97287.00;5041984;28;20111;-75
2022/07/31 05:46:08;;;;;;;4.22;1.65;;;;;;;26.08;85.25;97271.69;5029181;28;20029;-75
2022/07/31 05:48:33;;;;;;;1.85;1.27;;;;;;;27.68;76.68;97281.44;5027800;28;20064;-76
2022/07/31 05:50:59;;;;;;;1.85;1.23;;;;;;;29.41;67.93;97275.28;5027269;28;20408;-76
2022/07/31 05:53:25;;;;;;;0.77;0.68;;;;;;;30.54;60.07;97251.38;5029090;28;20030;-76
2022/07/31 05:55:51;;;;;;;2.28;1.48;;;;;;;30.35;59.88;97280.81;5029006;28;20484;-76
2022/07/31 05:58:18;;;;;;;1.42;1.27;;;;;;;30.97;57.91;97287.28;5011270;28;20036;-77
2022/07/31 06:00:45;;;;;;;3.25;1.65;;;;;;;32.05;53.43;97263.31;5028424;28;20029;-77
2022/07/31 06:03:12;;;;;;;0.63;0.45;;;;;;;33.08;50.61;97247.81;5031010;28;20090;-77
2022/07/31 06:05:38;;;;;;;0.63;0.57;;;;;;;31.77;53.38;97243.69;5047375;27;20052;-78
2022/07/31 06:08:04;;;;;;;0.10;0.10;;;;;;;31.63;53.70;97259.63;5027762;28;20421;-77
2022/07/31 06:10:30;;;;;;;0.60;0.60;;;;;;;31.91;52.00;97245.16;5041566;28;20394;-76
2022/07/31 06:12:55;;;;;;;1.27;0.98;;;;;;;33.13;49.35;97267.31;5038010;28;20041;-77
2022/07/31 06:15:21;;;;;;;0.52;0.52;;;;;;;33.10;48.94;97272.53;5023543;28;20454;-76
2022/07/31 06:17:47;;;;;;;0.68;0.68;;;;;;;31.51;51.83;97261.50;5045903;28;20037;-76
2022/07/31 06:20:13;;;;;;;1.13;1.08;;;;;;;29.77;57.67;97290.38;5035854;28;20523;-75
2022/07/31 06:22:39;;;;;;;1.85;0.77;;;;;;;31.04;54.53;97257.66;5027362;28;20032;-76
2022/07/31 06:25:08;;;;;;;1.73;1.17;;;;;;;32.98;50.28;97269.72;5026827;28;20038;-76
2022/07/31 06:27:34;;;;;;;0.70;0.47;;;;;;;33.04;47.93;97243.81;5019232;28;20048;-75
2022/07/31 06:30:00;;;;;;;0.93;0.65;;;;;;;33.44;47.77;97246.59;5022029;28;20063;-76
2022/07/31 06:32:26;;;;;;;12.40;6.03;;;;;;;33.75;46.76;97254.47;5042472;28;20037;-75
2022/07/31 06:34:51;;;;;;;10.30;5.55;;;;;;;31.55;50.58;97266.34;5035206;28;20025;-77
2022/07/31 06:37:18;;;;;;;11.35;5.82;;;;;;;32.45;50.14;97249.63;5028535;28;20480;-78
2022/07/31 06:39:43;;;;;;;15.43;6.60;;;;;;;34.19;47.17;97272.25;5043876;28;20020;-77
2022/07/31 06:42:09;;;;;;;7.07;5.75;;;;;;;34.69;44.90;97236.16;5046703;28;20029;-78
2022/07/31 06:44:34;;;;;;;4.90;4.18;;;;;;;35.55;43.08;97264.28;5028890;28;20112;-76
2022/07/31 06:47:00;;;;;;;15.02;11.32;;;;;;;36.00;40.62;97255.63;5044811;28;20556;-76
2022/07/31 06:49:25;;;;;;;4.90;4.47;;;;;;;35.50;42.02;97251.13;5022834;28;20104;-77
2022/07/31 06:51:51;;;;;;;5.20;4.65;;;;;;;36.11;40.74;97232.38;5030051;28;20448;-77
2022/07/31 06:54:18;;;;;;;9.63;5.30;;;;;;;37.49;38.34;97227.47;5014902;28;20025;-77
2022/07/31 06:56:43;;;;;;;5.72;4.82;;;;;;;38.09;37.03;97251.91;5030171;28;20097;-77
2022/07/31 06:59:09;;;;;;;9.23;5.38;;;;;;;38.69;35.24;97224.00;5013634;28;20450;-78
2022/07/31 07:01:35;;;;;;;6.10;5.50;;;;;;;36.36;38.94;97232.59;5030948;28;20041;-77
2022/07/31 07:04:01;;;;;;;8.20;4.25;;;;;;;35.31;40.60;97236.75;5026583;28;20026;-77
2022/07/31 07:06:27;;;;;;;10.60;8.85;;;;;;;34.15;42.56;97259.09;5010378;28;20066;-77
2022/07/31 07:08:53;;;;;;;7.00;4.32;;;;;;;32.57;44.94;97261.59;5026627;28;20029;-78
2022/07/31 07:11:20;;;;;;;7.40;5.20;;;;;;;32.29;45.67;97256.72;5010075;28;20034;-77
2022/07/31 07:13:46;;;;;;;18.40;5.78;;;;;;;32.31;47.41;97276.69;5010151;28;20034;-77
2022/07/31 07:16:12;;;;;;;5.60;4.20;;;;;;;31.85;47.96;97258.03;5024809;28;20460;-77
2022/07/31 07:18:38;;;;;;;4.72;4.20;;;;;;;32.71;45.93;97236.16;5010043;28;20170;-77
2022/07/31 07:21:03;;;;;;;7.20;5.85;;;;;;;33.99;44.02;97248.81;5026220;28;20116;-77
2022/07/31 07:23:29;;;;;;;84.13;65.45;;;;;;;34.58;43.13;97237.03;5028430;28;20047;-76
2022/07/31 07:25:55;;;;;;;15.63;11.35;;;;;;;34.81;41.32;97239.66;5009939;28;20030;-77
2022/07/31 07:28:21;;;;;;;4.53;4.13;;;;;;;34.96;39.68;97249.28;5009990;28;20032;-76
2022/07/31 07:30:47;;;;;;;5.88;5.15;;;;;;;37.16;36.48;97242.66;5026604;28;20034;-76
2022/07/31 07:33:12;;;;;;;14.18;5.82;;;;;;;36.61;37.16;97223.59;5025838;28;20025;-76
2022/07/31 07:35:38;;;;;;;11.68;10.02;;;;;;;33.28;42.96;97247.41;5025461;28;20411;-76
2022/07/31 07:38:04;;;;;;;6.45;5.10;;;;;;;31.56;46.64;97267.22;5026137;28;20040;-77
2022/07/31 07:40:30;;;;;;;9.68;5.68;;;;;;;30.27;50.54;97259.00;5018328;28;20025;-76
2022/07/31 07:42:56;;;;;;;9.20;7.85;;;;;;;29.67;52.06;97299.13;5010115;28;20104;-76
2022/07/31 07:45:21;;;;;;;10.43;6.78;;;;;;;29.31;53.11;97285.97;5009901;28;20543;-78
2022/07/31 07:47:47;;;;;;;11.45;5.57;;;;;;;29.17;53.24;97284.28;5009850;28;20416;-77
2022/07/31 07:50:14;;;;;;;12.02;5.55;;;;;;;29.10;53.86;97280.75;5045626;28;20060;-76
2022/07/31 07:52:40;;;;;;;6.10;5.50;;;;;;;29.51;53.02;97291.38;5031102;28;20026;-76
2022/07/31 07:55:07;;;;;;;10.60;5.20;;;;;;;29.78;52.51;97268.06;5017818;28;20036;-76
2022/07/31 07:57:33;;;;;;;45.45;7.25;;;;;;;30.14;51.09;97281.22;5015991;28;20453;-76
2022/07/31 08:00:00;;;;;;;20.88;6.55;;;;;;;29.99;52.63;97297.25;5037067;28;20029;-76
2022/07/31 08:02:25;;;;;;;7.20;6.10;;;;;;;29.66;54.50;97286.41;5017641;28;20523;-76
2022/07/31 08:04:51;;;;;;;8.05;7.05;;;;;;;29.44;55.23;97296.09;5042679;27;20025;-76
2022/07/31 08:07:26;;;;;;;7.70;6.70;;;;;;;28.97;55.75;97289.03;5019398;28;20029;-76
2022/07/31 08:09:52;;;;;;;11.07;8.05;;;;;;;28.64;55.96;97283.56;5014574;28;20517;-76
2022/07/31 08:12:17;;;;;;;11.60;7.65;;;;;;;28.27;57.84;97304.34;5032858;28;20030;-76
2022/07/31 08:14:43;;;;;;;15.65;8.45;;;;;;;27.94;59.32;97309.81;5012865;28;20469;-76
2022/07/31 08:17:12;;;;;;;11.95;8.32;;;;;;;27.54;60.42;97312.69;5047630;28;20028;-76
2022/07/31 08:19:38;;;;;;;18.75;9.63;;;;;;;27.09;62.73;97287.56;5020209;28;20126;-77
2022/07/31 08:22:03;;;;;;;11.73;9.30;;;;;;;27.27;62.07;97317.22;5029380;28;20064;-76
2022/07/31 08:24:29;;;;;;;11.75;9.27;;;;;;;26.70;63.89;97299.16;5032138;28;20025;-76
2022/07/31 08:29:38;;;;;;;17.50;8.43;;;;;;;26.45;66.38;97317.16;5043756;28;20044;-76
2022/07/31 08:32:04;;;;;;;13.43;9.07;;;;;;;26.22;67.44;97276.25;5030032;28;20532;-76
2022/07/31 08:34:30;;;;;;;23.95;18.15;;;;;;;26.35;68.56;97290.06;5045839;28;20018;-76
2022/07/31 08:36:56;;;;;;;11.10;9.38;;;;;;;26.49;68.07;97293.75;5035642;28;20085;-76
2022/07/31 08:39:21;;;;;;;17.80;9.35;;;;;;;26.70;67.57;97315.63;5054254;27;20030;-76
2022/07/31 08:41:47;;;;;;;9.23;8.30;;;;;;;26.56;66.78;97296.53;5017364;28;20029;-76
2022/07/31 08:44:12;;;;;;;12.35;9.00;;;;;;;26.66;67.95;97308.00;5032068;28;20036;-77
2022/07/31 08:46:39;;;;;;;10.95;8.55;;;;;;;26.69;67.16;97313.09;5032383;28;20357;-77
2022/07/31 08:49:06;;;;;;;10.20;8.00;;;;;;;26.54;67.27;97299.50;5015533;28;20116;-77
2022/07/31 08:51:36;;;;;;;10.82;7.90;;;;;;;26.76;66.92;97305.75;5020578;28;20036;-77
2022/07/31 08:54:06;;;;;;;17.38;8.82;;;;;;;26.87;66.01;97310.69;5028610;28;20112;-77
2022/07/31 08:56:35;;;;;;;11.55;8.70;;;;;;;27.02;66.47;97322.38;5032067;28;20029;-77
2022/07/31 08:59:07;;;;;;;14.65;8.48;;;;;;;27.09;66.24;97305.94;5017625;28;20042;-77
2022/07/31 09:01:41;;;;;;;168.50;18.27;;;;;;;27.11;65.54;97296.44;5036394;28;20068;-75
2022/07/31 09:04:10;;;;;;;11.38;7.72;;;;;;;27.66;64.05;97314.63;5044229;28;20041;-78
2022/07/31 09:06:36;;;;;;;29.52;11.18;;;;;;;27.95;63.81;97291.41;5023684;28;20025;-76
2022/07/31 09:09:03;;;;;;;13.55;8.20;;;;;;;29.41;59.21;97302.88;5032034;28;20033;-75
2022/07/31 09:11:29;;;;;;;10.95;8.38;;;;;;;30.24;55.54;97284.31;5015524;28;20029;-76
2022/07/31 09:13:56;;;;;;;12.73;8.10;;;;;;;30.74;53.86;97296.19;5030483;28;20032;-77
2022/07/31 09:17:14;;;;;;;13.63;8.50;;;;;;;31.52;51.59;97258.53;5021516;28;20032;-78
2022/07/31 09:19:41;;;;;;;9.85;7.90;;;;;;;31.87;49.55;97274.41;4999685;28;20042;-76
2022/07/31 09:22:18;;;;;;;15.13;7.72;;;;;;;33.11;46.37;97213.19;5045005;28;20017;-76
2022/07/31 09:24:44;;;;;;;15.02;7.50;;;;;;;34.47;44.03;97237.97;5042856;28;20040;-76
2022/07/31 09:27:10;;;;;;;11.65;7.80;;;;;;;35.35;42.21;97234.25;5028757;28;20033;-76
2022/07/31 09:29:43;;;;;;;20.90;9.80;;;;;;;35.57;40.48;97229.56;5028150;28;20026;-77
2022/07/31 09:32:19;;;;;;;8.02;7.22;;;;;;;34.06;42.21;97213.38;5028410;28;20034;-78
2022/07/31 09:34:46;;;;;;;8.45;7.28;;;;;;;35.91;40.04;97210.69;5014579;28;20032;-78
2022/07/31 09:37:15;;;;;;;10.20;6.95;;;;;;;36.11;38.61;97212.88;5041231;28;20033;-77
2022/07/31 09:39:41;;;;;;;12.57;7.35;;;;;;;35.61;39.70;97241.84;5037466;28;20553;-77
2022/07/31 09:42:07;;;;;;;7.85;6.65;;;;;;;35.02;40.25;97243.56;5030041;28;20033;-78
2022/07/31 09:44:44;;;;;;;11.63;7.25;;;;;;;33.82;42.38;97231.25;5047811;28;20495;-78
2022/07/31 09:47:25;;;;;;;8.10;6.88;;;;;;;34.21;41.61;97214.50;5036382;28;20456;-78
2022/07/31 09:49:53;;;;;;;9.73;7.63;;;;;;;33.21;42.91;97205.09;5019869;28;20458;-77
2022/07/31 09:52:19;;;;;;;12.25;8.77;;;;;;;33.70;42.93;97221.09;5043606;28;20017;-77
2022/07/31 09:54:45;;;;;;;12.07;7.35;;;;;;;32.56;44.48;97210.03;5022518;28;20411;-77
2022/07/31 09:57:12;;;;;;;10.63;7.70;;;;;;;33.34;43.82;97213.13;5040548;28;20026;-77
2022/07/31 09:59:37;;;;;;;8.55;7.65;;;;;;;32.64;44.16;97229.06;5029276;28;20028;-76
2022/07/31 10:02:03;;;;;;;15.23;7.82;;;;;;;32.01;45.46;97223.28;5047539;28;20045;-77
2022/07/31 10:04:29;;;;;;;8.98;7.15;;;;;;;32.23;44.49;97205.06;5029289;28;20113;-76
2022/07/31 10:06:55;;;;;;;13.27;8.55;;;;;;;31.61;46.00;97200.94;5032727;28;20100;-76
2022/07/31 10:09:21;;;;;;;11.80;8.00;;;;;;;32.86;43.88;97210.69;5014613;28;20933;-77
2022/07/31 10:11:48;;;;;;;10.82;7.88;;;;;;;31.22;46.51;97204.25;5021784;28;20039;-76
2022/07/31 10:14:27;;;;;;;8.52;7.57;;;;;;;30.47;48.54;97218.31;5038661;28;20030;-76
2022/07/31 10:16:55;;;;;;;7.97;7.18;;;;;;;31.56;47.00;97193.34;5030287;28;20487;-76
2022/07/31 10:19:21;;;;;;;12.77;8.35;;;;;;;33.07;44.25;97187.03;5031180;28;20094;-76
2022/07/31 10:21:54;;;;;;;20.08;7.57;;;;;;;33.85;42.32;97186.34;5026189;28;20029;-77
2022/07/31 10:24:21;;;;;;;9.63;8.43;;;;;;;33.73;42.36;97181.72;5021028;28;20445;-77
2022/07/31 10:26:48;;;;;;;11.02;8.63;;;;;;;33.78;41.53;97154.03;5038502;28;20021;-77
2022/07/31 10:29:16;;;;;;;10.32;7.45;;;;;;;33.74;41.42;97177.88;5024555;28;20476;-76
2022/07/31 10:31:42;;;;;;;11.90;7.45;;;;;;;34.59;40.51;97183.16;5047118;28;20065;-77
2022/07/31 10:34:08;;;;;;;9.15;8.02;;;;;;;34.80;39.88;97167.59;5040295;28;20021;-78
2022/07/31 10:36:36;;;;;;;15.38;7.63;;;;;;;36.46;37.02;97171.31;5037947;28;20075;-76
2022/07/31 10:39:05;;;;;;;8.50;7.50;;;;;;;36.68;35.84;97158.13;5027494;28;20494;-76
2022/07/31 10:41:49;;;;;;;8.40;7.57;;;;;;;36.90;36.06;97149.56;5044348;28;20028;-76
2022/07/31 10:44:28;;;;;;;12.32;8.15;;;;;;;37.09;35.39;97142.44;5042172;28;20014;-77
2022/07/31 10:46:54;;;;;;;8.90;8.00;;;;;;;35.65;37.30;97158.66;5009482;28;20549;-77
2022/07/31 10:49:40;;;;;;;9.55;7.82;;;;;;;35.29;38.39;97149.03;5041197;28;20025;-77
2022/07/31 10:52:06;;;;;;;8.85;7.95;;;;;;;35.32;38.17;97140.16;5014702;28;20128;-76
2022/07/31 10:54:42;;;;;;;13.70;8.13;;;;;;;35.81;37.81;97164.09;5034132;28;20025;-77
2022/07/31 10:57:08;;;;;;;8.63;7.20;;;;;;;37.26;35.80;97147.78;5022445;28;20057;-77
2022/07/31 10:59:34;;;;;;;9.85;8.13;;;;;;;39.51;32.42;97142.28;5017778;28;20068;-77
2022/07/31 11:01:59;;;;;;;9.73;7.75;;;;;;;40.56;31.02;97124.94;5042271;28;20106;-77
2022/07/31 11:04:26;;;;;;;16.25;9.15;;;;;;;39.87;31.77;97131.69;5020057;28;20028;-77
2022/07/31 11:06:53;;;;;;;8.90;7.72;;;;;;;40.02;31.35;97114.75;5030433;28;20496;-78
2022/07/31 11:09:24;;;;;;;8.43;6.60;;;;;;;38.49;33.18;97117.75;5011109;28;20098;-78
2022/07/31 11:11:50;;;;;;;13.93;8.60;;;;;;;36.78;36.62;97146.19;5045790;28;20498;-77
2022/07/31 11:14:16;;;;;;;11.27;8.15;;;;;;;36.41;36.73;97147.06;5018899;28;20283;-77
2022/07/31 11:16:52;;;;;;;10.93;7.88;;;;;;;35.13;38.51;97155.56;5025609;28;20037;-77
2022/07/31 11:19:18;;;;;;;9.80;8.10;;;;;;;33.96;41.02;97139.09;5025428;28;20090;-76
2022/07/31 11:21:43;;;;;;;11.60;8.10;;;;;;;33.59;40.81;97144.28;5022715;28;20403;-76
2022/07/31 11:24:21;;;;;;;11.38;8.48;;;;;;;32.88;42.85;97157.81;5026568;28;20029;-77
2022/07/31 11:26:57;;;;;;;10.77;7.97;;;;;;;31.53;45.46;97143.22;5014306;28;20029;-78
2022/07/31 11:29:36;;;;;;;13.13;8.82;;;;;;;32.06;45.27;97166.16;5025055;28;20021;-76
2022/07/31 11:32:04;;;;;;;15.90;9.38;;;;;;;31.75;45.97;97157.34;5009997;28;20029;-77